Time;durP1;ratioP1;P1;durP2;ratioP2;P2;SDS_P1;SDS_P2;PMS_P1;PMS_P2;Temp;Humidity;BMP_temperature;BMP_pressure;BME280_temperature;BME280_humidity;BME280_pressure;Samples;Min_cycle;Max_cycle;Signal;HPM_P1;HPM_P2
2022/08/15 00:02:21;;;;;;;27.47;17.13;;;;;;;19.41;100.00;99349.53;4254696;28;20274;-61
2022/08/15 00:05:12;;;;;;;34.83;18.03;;;;;;;19.34;100.00;99338.81;4273838;28;20247;-65
2022/08/15 00:07:39;;;;;;;29.13;18.17;;;;;;;19.27;100.00;99338.09;4262946;28;20242;-61
2022/08/15 00:10:16;;;;;;;28.40;18.13;;;;;;;19.33;100.00;99333.66;4255532;28;21245;-62
2022/08/15 00:13:17;;;;;;;27.77;17.40;;;;;;;19.29;100.00;99324.38;4239571;28;20253;-62
2022/08/15 00:15:46;;;;;;;30.73;18.07;;;;;;;19.30;100.00;99326.84;4245507;28;23395;-62
2022/08/15 00:18:14;;;;;;;29.70;18.63;;;;;;;19.31;100.00;99322.25;4255571;28;20299;-62
2022/08/15 00:20:46;;;;;;;24.00;17.10;;;;;;;19.24;100.00;99316.97;4248678;28;20349;-62
2022/08/15 00:23:19;;;;;;;28.70;17.43;;;;;;;19.30;100.00;99317.94;4250184;28;20225;-62
2022/08/15 00:25:53;;;;;;;30.33;17.87;;;;;;;19.24;100.00;99316.13;4255233;28;20292;-63
2022/08/15 00:28:25;;;;;;;28.23;18.37;;;;;;;19.19;100.00;99319.53;4250086;28;20243;-60
2022/08/15 00:31:08;;;;;;;31.60;18.17;;;;;;;19.18;100.00;99323.28;4254088;28;20232;-64
2022/08/15 00:33:38;;;;;;;27.33;17.87;;;;;;;19.21;100.00;99324.69;4256542;28;22130;-61
2022/08/15 00:36:07;;;;;;;27.17;17.67;;;;;;;19.25;100.00;99323.19;4245389;28;23833;-60
2022/08/15 00:38:54;;;;;;;30.60;17.63;;;;;;;19.33;100.00;99331.78;4253148;28;20237;-60
2022/08/15 00:41:39;;;;;;;28.73;18.23;;;;;;;19.21;100.00;99325.50;4250993;28;20230;-63
2022/08/15 00:44:24;;;;;;;35.83;19.17;;;;;;;19.20;100.00;99321.19;4271810;28;21156;-62
2022/08/15 00:47:15;;;;;;;29.30;18.70;;;;;;;19.28;100.00;99333.53;4261337;28;20235;-61
2022/08/15 00:49:43;;;;;;;35.23;19.47;;;;;;;19.29;100.00;99330.59;4268146;28;20243;-62
2022/08/15 00:52:30;;;;;;;34.23;19.83;;;;;;;19.29;100.00;99333.31;4238385;28;20294;-64
2022/08/15 00:55:12;;;;;;;31.53;19.90;;;;;;;19.24;100.00;99329.63;4256056;28;20235;-60
2022/08/15 00:57:44;;;;;;;28.03;19.50;;;;;;;19.18;100.00;99325.97;4242409;28;20243;-63
2022/08/15 01:00:29;;;;;;;32.90;19.93;;;;;;;19.22;100.00;99331.72;4218330;28;20287;-62
2022/08/15 01:03:09;;;;;;;34.87;20.17;;;;;;;19.18;100.00;99334.06;4270275;28;21836;-62
2022/08/15 01:05:46;;;;;;;31.90;19.73;;;;;;;19.23;100.00;99330.69;4252066;28;21086;-60
2022/08/15 01:08:19;;;;;;;29.20;19.50;;;;;;;19.21;100.00;99330.91;4261722;28;20510;-62
2022/08/15 01:10:56;;;;;;;36.10;20.93;;;;;;;19.13;100.00;99323.97;4241564;28;20230;-63
2022/08/15 01:13:33;;;;;;;37.50;19.50;;;;;;;19.14;100.00;99314.00;4237601;28;22175;-65
2022/08/15 01:16:22;;;;;;;31.70;20.27;;;;;;;19.10;100.00;99310.09;4249680;28;21684;-61
2022/08/15 01:19:26;;;;;;;31.87;20.10;;;;;;;19.12;100.00;99316.91;4234648;28;20974;-62
2022/08/15 01:22:18;;;;;;;32.50;20.23;;;;;;;19.04;100.00;99300.25;4264245;28;21753;-63
2022/08/15 01:25:08;;;;;;;33.10;20.00;;;;;;;19.04;100.00;99300.25;4239269;28;20289;-61
2022/08/15 01:28:08;;;;;;;32.93;19.47;;;;;;;19.00;100.00;99297.16;4258070;28;20411;-63
2022/08/15 01:30:51;;;;;;;30.67;20.83;;;;;;;18.92;100.00;99298.31;4262345;28;20318;-62
2022/08/15 01:33:33;;;;;;;29.80;20.47;;;;;;;18.97;100.00;99298.44;4251122;28;22634;-61
2022/08/15 01:36:02;;;;;;;36.93;22.27;;;;;;;19.01;100.00;99304.22;4257798;28;23035;-62
2022/08/15 01:39:01;;;;;;;37.40;20.63;;;;;;;18.99;100.00;99303.63;4263669;28;20272;-63
2022/08/15 01:41:42;;;;;;;31.40;20.87;;;;;;;19.01;100.00;99312.31;4257867;28;20280;-63
2022/08/15 01:44:38;;;;;;;33.47;21.60;;;;;;;18.98;100.00;99307.34;4256674;28;20400;-63
2022/08/15 01:47:35;;;;;;;34.17;20.73;;;;;;;18.96;100.00;99310.31;4268343;28;22466;-61
2022/08/15 01:50:14;;;;;;;32.83;21.27;;;;;;;18.96;100.00;99315.69;4251829;28;20280;-66
2022/08/15 01:53:02;;;;;;;33.07;20.37;;;;;;;18.97;100.00;99311.13;4265527;28;20320;-61
2022/08/15 01:55:48;;;;;;;33.47;21.63;;;;;;;18.94;100.00;99312.41;4273960;28;23194;-62
2022/08/15 01:58:21;;;;;;;40.37;21.10;;;;;;;18.96;100.00;99315.69;4239891;28;21002;-63
2022/08/15 02:01:12;;;;;;;37.50;22.30;;;;;;;18.92;100.00;99311.81;4251836;28;22637;-62
2022/08/15 02:03:40;;;;;;;34.97;22.10;;;;;;;18.91;100.00;99317.41;4289055;28;20272;-62
2022/08/15 02:06:29;;;;;;;32.30;20.47;;;;;;;18.84;100.00;99311.28;4266195;28;20237;-62
2022/08/15 02:09:04;;;;;;;42.60;22.13;;;;;;;18.88;100.00;99310.59;4261423;28;20251;-62
2022/08/15 02:11:55;;;;;;;33.53;21.97;;;;;;;18.81;100.00;99307.16;4290128;28;20240;-63
2022/08/15 02:14:31;;;;;;;33.13;22.10;;;;;;;18.90;100.00;99297.72;4267124;28;20590;-61
2022/08/15 02:17:03;;;;;;;31.37;21.53;;;;;;;18.85;100.00;99297.59;4256591;28;21307;-62
2022/08/15 02:19:33;;;;;;;34.53;21.33;;;;;;;18.91;100.00;99299.34;4265519;28;21648;-65
2022/08/15 02:22:17;;;;;;;35.80;21.97;;;;;;;18.85;100.00;99291.38;4250234;28;20525;-61
2022/08/15 02:24:56;;;;;;;35.13;21.83;;;;;;;18.94;100.00;99290.84;4272938;28;20875;-61
2022/08/15 02:27:25;;;;;;;31.90;21.87;;;;;;;18.92;100.00;99282.16;4265773;28;21817;-62
2022/08/15 02:29:53;;;;;;;34.73;20.57;;;;;;;19.00;100.00;99285.56;4283813;28;20327;-61
2022/08/15 02:32:20;;;;;;;29.90;19.97;;;;;;;19.03;100.00;99282.41;4260427;28;23018;-60
2022/08/15 02:34:58;;;;;;;35.80;20.57;;;;;;;19.04;100.00;99292.16;4266898;28;20990;-62
2022/08/15 02:37:24;;;;;;;33.70;21.53;;;;;;;19.06;100.00;99288.19;4273326;28;21418;-62
2022/08/15 02:39:52;;;;;;;30.97;20.43;;;;;;;19.10;100.00;99289.34;4268392;28;20417;-62
2022/08/15 02:42:24;;;;;;;30.80;20.90;;;;;;;19.04;100.00;99284.06;4249629;28;20251;-62
2022/08/15 02:44:51;;;;;;;33.40;22.73;;;;;;;19.05;100.00;99289.22;4260784;28;21069;-60
2022/08/15 02:47:18;;;;;;;32.50;21.53;;;;;;;19.06;100.00;99287.34;4246493;28;23371;-65
2022/08/15 02:49:49;;;;;;;34.67;21.33;;;;;;;19.05;100.00;99285.69;4258159;28;20956;-63
2022/08/15 02:52:16;;;;;;;32.30;20.57;;;;;;;19.05;100.00;99280.31;4262434;28;26208;-62
2022/08/15 02:54:47;;;;;;;33.90;21.70;;;;;;;19.07;100.00;99278.22;4270439;28;20237;-61
2022/08/15 02:57:29;;;;;;;29.80;20.37;;;;;;;19.03;100.00;99264.34;4257066;28;20424;-61
2022/08/15 02:59:56;;;;;;;29.37;20.90;;;;;;;19.04;100.00;99267.91;4261012;28;20249;-64
2022/08/15 03:02:24;;;;;;;31.30;21.90;;;;;;;19.07;100.00;99267.44;4273561;28;25216;-67
2022/08/15 03:04:58;;;;;;;34.47;21.53;;;;;;;19.05;100.00;99266.84;4270487;28;20261;-62
2022/08/15 03:07:26;;;;;;;31.40;20.70;;;;;;;19.05;100.00;99266.84;4279079;28;20914;-62
2022/08/15 03:09:54;;;;;;;34.00;21.50;;;;;;;18.97;100.00;99268.78;4255775;28;20363;-62
2022/08/15 03:12:23;;;;;;;27.63;20.97;;;;;;;18.96;100.00;99271.72;4260988;28;22609;-61
2022/08/15 03:15:06;;;;;;;34.27;21.30;;;;;;;18.96;100.00;99267.16;4264392;28;20336;-64
2022/08/15 03:17:38;;;;;;;29.83;21.43;;;;;;;18.97;100.00;99273.38;4264352;28;20237;-62
2022/08/15 03:20:08;;;;;;;28.60;21.00;;;;;;;18.97;100.00;99276.88;4266248;28;20230;-62
2022/08/15 03:22:47;;;;;;;35.80;22.67;;;;;;;18.92;100.00;99273.25;4273119;28;20230;-62
2022/08/15 03:25:16;;;;;;;34.30;21.63;;;;;;;18.94;100.00;99274.66;4282048;28;20241;-62
2022/08/15 03:27:43;;;;;;;30.10;21.07;;;;;;;18.95;100.00;99287.06;4270835;28;20261;-62
2022/08/15 03:30:12;;;;;;;31.37;22.07;;;;;;;18.92;100.00;99287.53;4277660;28;21157;-61
2022/08/15 03:32:54;;;;;;;32.53;21.97;;;;;;;18.96;100.00;99283.34;4292919;28;22622;-63
2022/08/15 03:35:25;;;;;;;33.20;22.13;;;;;;;18.91;100.00;99280.47;4309253;28;21845;-65
2022/08/15 03:37:56;;;;;;;35.37;21.63;;;;;;;18.90;100.00;99278.03;4303998;28;21149;-62
2022/08/15 03:40:27;;;;;;;31.03;21.03;;;;;;;18.94;100.00;99284.59;4298415;28;20234;-60
2022/08/15 03:42:59;;;;;;;32.17;22.40;;;;;;;18.97;100.00;99290.38;4281427;28;20230;-62
2022/08/15 03:45:48;;;;;;;36.40;23.17;;;;;;;19.03;100.00;99301.28;4295933;28;20238;-64
2022/08/15 03:48:16;;;;;;;39.67;23.33;;;;;;;18.96;100.00;99296.81;4313343;28;20479;-63
2022/08/15 03:50:51;;;;;;;31.60;21.83;;;;;;;18.98;100.00;99297.38;4330712;28;20238;-62
2022/08/15 03:53:24;;;;;;;33.63;22.40;;;;;;;19.01;100.00;99287.19;4311609;28;20240;-62
2022/08/15 03:55:56;;;;;;;34.23;21.47;;;;;;;19.09;100.00;99281.50;4305423;28;20236;-61
2022/08/15 03:58:27;;;;;;;35.63;19.70;;;;;;;19.13;100.00;99288.91;4295807;28;20226;-62
2022/08/15 04:01:04;;;;;;;33.53;21.37;;;;;;;19.17;100.00;99283.88;4324244;28;21284;-60
2022/08/15 04:03:31;;;;;;;27.23;19.93;;;;;;;19.27;100.00;99276.06;4265418;28;21030;-61
2022/08/15 04:06:04;;;;;;;28.90;19.40;;;;;;;19.34;100.00;99273.28;4286913;28;20238;-61
2022/08/15 04:08:34;;;;;;;33.40;19.70;;;;;;;19.36;100.00;99265.75;4278185;28;20257;-61
2022/08/15 04:11:25;;;;;;;31.87;19.33;;;;;;;19.31;100.00;99263.72;4278666;28;20446;-61
2022/08/15 04:14:06;;;;;;;28.73;18.80;;;;;;;19.38;100.00;99261.75;4270007;28;20288;-62
2022/08/15 04:16:55;;;;;;;27.73;18.43;;;;;;;19.52;100.00;99264.25;4259419;28;20795;-63
2022/08/15 04:19:30;;;;;;;28.00;18.57;;;;;;;19.59;100.00;99260.38;4270102;28;20226;-63
2022/08/15 04:22:14;;;;;;;28.57;18.63;;;;;;;19.62;100.00;99253.72;4267664;28;20316;-63
2022/08/15 04:25:09;;;;;;;25.80;19.30;;;;;;;19.67;100.00;99261.13;4272845;28;20243;-62
2022/08/15 04:27:43;;;;;;;30.43;18.23;;;;;;;19.70;100.00;99253.41;4271497;28;20235;-62
2022/08/15 04:30:18;;;;;;;28.73;17.83;;;;;;;19.84;100.00;99261.28;4258858;28;20375;-62
2022/08/15 04:32:45;;;;;;;26.00;19.23;;;;;;;19.84;100.00;99258.56;4271835;28;22910;-63
2022/08/15 04:35:26;;;;;;;30.93;19.13;;;;;;;19.89;100.00;99261.38;4263612;28;20405;-62
2022/08/15 04:37:57;;;;;;;25.40;18.10;;;;;;;19.96;100.00;99259.38;4249153;28;26256;-62
2022/08/15 04:40:24;;;;;;;31.07;18.00;;;;;;;20.08;100.00;99267.47;4267126;28;20233;-66
2022/08/15 04:43:11;;;;;;;26.20;17.33;;;;;;;20.23;100.00;99263.25;4258576;28;20560;-63
2022/08/15 04:45:40;;;;;;;26.33;17.50;;;;;;;20.31;100.00;99266.66;4245355;28;21989;-64
2022/08/15 04:48:09;;;;;;;24.03;17.03;;;;;;;20.37;100.00;99261.13;4250268;28;20241;-62
2022/08/15 04:50:49;;;;;;;27.80;17.23;;;;;;;20.33;100.00;99270.75;4266588;28;21450;-65
2022/08/15 04:53:19;;;;;;;26.80;16.90;;;;;;;20.42;100.00;99273.91;4255742;28;20524;-61
2022/08/15 04:55:58;;;;;;;24.07;16.23;;;;;;;20.41;100.00;99272.25;4260921;28;20296;-62
2022/08/15 04:58:27;;;;;;;22.07;16.10;;;;;;;20.51;100.00;99263.53;4263118;28;20244;-62
2022/08/15 05:01:13;;;;;;;24.90;15.83;;;;;;;20.72;100.00;99262.94;4271395;28;21096;-63
2022/08/15 05:03:41;;;;;;;25.87;15.73;;;;;;;20.77;100.00;99281.97;4258611;28;20288;-62
2022/08/15 05:06:09;;;;;;;26.90;16.17;;;;;;;20.74;100.00;99287.00;4263744;28;20406;-63
2022/08/15 05:08:56;;;;;;;21.03;14.97;;;;;;;20.68;100.00;99293.41;4267702;28;25564;-62
2022/08/15 05:11:22;;;;;;;22.13;15.60;;;;;;;20.77;100.00;99287.38;4256108;28;20587;-59
2022/08/15 05:13:49;;;;;;;23.70;15.30;;;;;;;21.00;100.00;99285.63;4269084;28;23071;-62
2022/08/15 05:16:15;;;;;;;22.77;14.17;;;;;;;21.08;100.00;99288.78;4252814;28;20520;-62
2022/08/15 05:18:43;;;;;;;22.90;15.60;;;;;;;21.24;100.00;99289.06;4265670;28;21855;-62
2022/08/15 05:21:12;;;;;;;21.63;14.47;;;;;;;21.29;100.00;99292.66;4259926;28;20343;-63
2022/08/15 05:23:41;;;;;;;21.27;14.37;;;;;;;21.33;100.00;99292.19;4235203;28;21468;-62
2022/08/15 05:26:10;;;;;;;23.00;14.43;;;;;;;21.41;100.00;99291.81;4253057;28;20305;-43
2022/08/15 05:28:57;;;;;;;21.17;14.87;;;;;;;21.65;98.69;99306.03;4238733;28;20272;-47
2022/08/15 05:31:25;;;;;;;19.37;14.13;;;;;;;21.72;97.37;99303.97;4268501;28;20238;-41
2022/08/15 05:33:59;;;;;;;22.13;14.73;;;;;;;21.84;96.70;99310.13;4252173;28;20297;-43
2022/08/15 05:36:27;;;;;;;21.53;14.20;;;;;;;21.85;95.91;99309.06;4264683;28;20233;-61
2022/08/15 05:39:02;;;;;;;19.57;14.07;;;;;;;21.81;95.15;99313.34;4247864;28;20521;-62
2022/08/15 05:41:40;;;;;;;25.50;13.30;;;;;;;21.87;95.11;99315.06;4267143;28;20236;-63
2022/08/15 05:44:24;;;;;;;22.83;14.10;;;;;;;21.78;94.99;99300.31;4249500;28;22425;-64
2022/08/15 05:47:16;;;;;;;19.63;13.50;;;;;;;21.93;94.21;99310.53;4271124;28;20588;-62
2022/08/15 05:49:52;;;;;;;26.67;13.90;;;;;;;21.98;92.71;99307.91;4258368;28;20226;-63
2022/08/15 05:52:45;;;;;;;19.90;13.47;;;;;;;22.11;93.01;99306.75;4276140;28;20222;-63
2022/08/15 05:55:40;;;;;;;19.73;12.47;;;;;;;22.40;92.02;99326.44;4263190;28;23643;-62
2022/08/15 05:58:17;;;;;;;18.97;13.27;;;;;;;22.37;90.44;99326.13;4265598;28;20590;-62
2022/08/15 06:01:17;;;;;;;23.87;13.70;;;;;;;22.13;92.28;99327.13;4262442;28;20472;-63
2022/08/15 06:04:12;;;;;;;18.07;13.27;;;;;;;22.01;92.73;99323.69;4247183;28;20236;-64
2022/08/15 06:06:55;;;;;;;21.00;14.53;;;;;;;21.90;94.22;99321.88;4263725;28;20241;-62
2022/08/15 06:09:35;;;;;;;19.43;13.77;;;;;;;21.95;93.50;99332.78;4269026;28;20234;-62
2022/08/15 06:12:14;;;;;;;21.57;14.70;;;;;;;22.20;91.88;99337.78;4271042;28;20237;-63
2022/08/15 06:14:55;;;;;;;21.57;14.07;;;;;;;22.48;91.55;99327.91;4250216;28;20403;-64
2022/08/15 06:17:28;;;;;;;28.00;13.53;;;;;;;23.37;86.39;99337.69;4272040;28;21299;-62
2022/08/15 06:19:58;;;;;;;20.87;14.00;;;;;;;24.17;82.89;99337.84;4261318;28;20230;-62
2022/08/15 06:22:41;;;;;;;17.47;12.97;;;;;;;25.47;75.33;99334.38;4263911;28;20326;-64
2022/08/15 06:25:19;;;;;;;15.70;12.10;;;;;;;26.78;67.76;99348.44;4274987;28;20309;-60
2022/08/15 06:28:25;;;;;;;22.90;12.57;;;;;;;27.33;64.97;99350.13;4285623;28;20432;-63
2022/08/15 06:31:42;;;;;;;17.90;12.43;;;;;;;27.92;61.41;99351.09;4283485;28;20232;-64
2022/08/15 06:34:27;;;;;;;17.73;12.10;;;;;;;28.21;59.89;99339.34;4276552;28;20233;-65
2022/08/15 06:37:23;;;;;;;15.70;11.50;;;;;;;29.25;55.89;99346.94;4266608;28;20238;-63
2022/08/15 06:40:17;;;;;;;19.37;11.60;;;;;;;28.78;56.55;99353.28;4271120;28;20246;-64
2022/08/15 06:42:54;;;;;;;28.67;12.30;;;;;;;28.20;59.13;99341.25;4279298;28;21611;-67
2022/08/15 06:45:28;;;;;;;22.83;11.33;;;;;;;28.11;60.14;99340.25;4247321;28;20308;-62
2022/08/15 06:48:03;;;;;;;16.70;11.13;;;;;;;27.30;63.23;99334.31;4254236;28;20997;-67
2022/08/15 06:50:55;;;;;;;23.90;12.03;;;;;;;26.37;67.18;99334.91;4273398;28;20337;-63
2022/08/15 06:53:27;;;;;;;20.73;13.03;;;;;;;25.80;70.43;99323.19;4261425;28;21004;-64
2022/08/15 06:56:21;;;;;;;17.53;12.03;;;;;;;25.04;73.76;99324.69;4244810;28;20247;-67
2022/08/15 06:59:14;;;;;;;23.53;12.87;;;;;;;25.02;74.14;99322.22;4261100;28;24953;-64
2022/08/15 07:01:58;;;;;;;20.10;12.77;;;;;;;26.70;68.21;99334.28;4252471;28;20241;-66
2022/08/15 07:05:07;;;;;;;18.73;12.27;;;;;;;28.21;61.13;99344.81;4268403;28;22153;-64
2022/08/15 07:08:01;;;;;;;20.10;12.50;;;;;;;27.88;61.58;99347.28;4264778;28;20237;-64
2022/08/15 07:10:32;;;;;;;18.17;11.83;;;;;;;27.09;63.55;99349.13;4273866;28;20268;-64
2022/08/15 07:13:19;;;;;;;21.63;12.40;;;;;;;27.70;62.50;99346.06;4268826;28;20229;-64
2022/08/15 07:16:01;;;;;;;16.27;12.03;;;;;;;28.77;57.39;99362.59;4276520;28;22652;-66
2022/08/15 07:18:36;;;;;;;19.80;12.70;;;;;;;28.88;56.25;99375.06;4254416;28;20309;-64
2022/08/15 07:21:07;;;;;;;16.97;12.63;;;;;;;27.43;62.12;99345.69;4254032;28;20239;-65
2022/08/15 07:23:59;;;;;;;16.03;12.40;;;;;;;26.45;66.78;99340.59;4250996;28;20252;-68
2022/08/15 07:26:29;;;;;;;17.67;13.10;;;;;;;25.82;69.71;99340.09;4266638;28;20245;-63
2022/08/15 07:28:59;;;;;;;22.40;13.77;;;;;;;25.43;72.72;99336.00;4264773;28;20546;-62
2022/08/15 07:31:33;;;;;;;19.83;13.10;;;;;;;25.29;73.51;99345.78;4264837;28;22214;-65
2022/08/15 07:34:23;;;;;;;19.50;13.13;;;;;;;25.22;75.02;99337.03;4269368;28;20242;-62
2022/08/15 07:37:03;;;;;;;27.53;14.07;;;;;;;25.15;75.15;99339.16;4259161;28;20305;-64
2022/08/15 07:39:41;;;;;;;24.43;14.30;;;;;;;24.91;75.31;99336.06;4243990;28;20256;-64
2022/08/15 07:42:19;;;;;;;19.53;13.57;;;;;;;24.73;76.79;99335.47;4228403;28;20297;-63
2022/08/15 07:45:18;;;;;;;19.93;13.40;;;;;;;24.66;77.30;99340.34;4260053;28;20246;-63
2022/08/15 07:48:01;;;;;;;21.30;13.73;;;;;;;24.74;75.94;99337.09;4265348;28;20234;-63
2022/08/15 07:50:38;;;;;;;21.13;13.50;;;;;;;25.06;74.27;99336.97;4267620;28;22399;-62
2022/08/15 07:53:19;;;;;;;22.90;13.60;;;;;;;24.98;75.34;99336.66;4260738;28;20229;-63
2022/08/15 07:56:16;;;;;;;20.37;13.23;;;;;;;25.11;74.99;99336.16;4262214;28;22221;-64
2022/08/15 07:59:16;;;;;;;22.17;13.63;;;;;;;25.05;75.49;99343.50;4262102;28;20418;-63
2022/08/15 08:02:02;;;;;;;20.90;13.00;;;;;;;25.32;75.34;99338.97;4264337;28;21785;-63
2022/08/15 08:04:34;;;;;;;20.13;12.83;;;;;;;25.28;74.48;99342.22;4263831;28;20234;-60
2022/08/15 08:07:14;;;;;;;22.20;13.57;;;;;;;25.14;75.07;99340.25;4266770;28;21129;-61
2022/08/15 08:10:04;;;;;;;17.13;12.50;;;;;;;25.05;75.05;99342.66;4272164;28;20341;-64
2022/08/15 08:13:06;;;;;;;16.43;12.27;;;;;;;24.98;75.90;99342.09;4279545;28;20306;-62
2022/08/15 08:16:01;;;;;;;20.17;13.37;;;;;;;24.68;76.72;99345.50;4272985;28;20297;-64
2022/08/15 08:18:55;;;;;;;18.83;13.20;;;;;;;24.63;77.40;99338.97;4242576;28;20642;-64
2022/08/15 08:21:33;;;;;;;19.90;13.27;;;;;;;25.00;78.04;99345.38;4265008;28;20424;-64
2022/08/15 08:24:27;;;;;;;20.13;13.13;;;;;;;24.97;76.12;99343.19;4261418;28;20229;-63
2022/08/15 08:27:05;;;;;;;19.93;12.63;;;;;;;25.32;74.28;99342.50;4234016;28;20230;-65
2022/08/15 08:29:40;;;;;;;19.30;12.53;;;;;;;25.55;72.73;99345.81;4261263;28;20233;-65
2022/08/15 08:32:17;;;;;;;15.70;11.63;;;;;;;25.80;70.41;99347.72;4258650;28;20247;-63
2022/08/15 08:35:33;;;;;;;18.23;12.03;;;;;;;25.93;70.82;99349.13;4253045;28;20242;-63
2022/08/15 08:38:18;;;;;;;18.03;12.00;;;;;;;25.93;69.90;99343.69;4273719;28;25181;-64
2022/08/15 08:41:25;;;;;;;19.73;12.10;;;;;;;26.05;68.62;99355.94;4279208;28;20742;-62
2022/08/15 08:44:01;;;;;;;18.00;11.87;;;;;;;26.24;68.15;99358.09;4278984;28;20821;-64
2022/08/15 08:47:20;;;;;;;17.07;12.70;;;;;;;26.22;67.77;99360.28;4291543;28;20300;-64
2022/08/15 08:49:47;;;;;;;18.87;13.37;;;;;;;25.84;69.94;99351.56;4271075;28;20234;-64
2022/08/15 08:52:52;;;;;;;17.20;12.73;;;;;;;25.89;70.88;99351.56;4257762;28;20234;-64
2022/08/15 08:55:47;;;;;;;19.83;11.33;;;;;;;26.07;71.64;99348.31;4255169;28;20387;-64
2022/08/15 08:58:28;;;;;;;18.17;12.80;;;;;;;26.25;71.04;99354.31;4268181;28;20278;-66
2022/08/15 09:01:05;;;;;;;18.33;12.80;;;;;;;26.35;70.73;99362.44;4270908;28;22800;-64
2022/08/15 09:03:39;;;;;;;17.03;12.50;;;;;;;26.16;69.84;99358.66;4280866;28;20300;-63
2022/08/15 09:06:10;;;;;;;18.30;12.57;;;;;;;26.07;70.24;99363.84;4269870;28;20502;-63
2022/08/15 09:09:11;;;;;;;18.13;13.63;;;;;;;25.70;71.42;99360.25;4257483;28;20357;-64
2022/08/15 09:15:04;;;;;;;16.17;12.93;;;;;;;25.94;71.26;99357.03;4268635;28;20378;-62
2022/08/15 09:17:44;;;;;;;19.87;12.23;;;;;;;26.33;69.87;99357.25;4261086;28;20259;-63
2022/08/15 09:20:35;;;;;;;19.83;12.87;;;;;;;26.47;68.60;99364.88;4265974;28;20234;-64
2022/08/15 09:23:06;;;;;;;15.03;12.37;;;;;;;26.69;67.74;99361.84;4271873;28;20233;-63
2022/08/15 09:25:40;;;;;;;21.87;13.03;;;;;;;26.84;66.24;99361.81;4260350;28;20249;-65
2022/08/15 09:28:15;;;;;;;23.90;13.80;;;;;;;26.82;66.16;99360.44;4245879;28;23046;-64
2022/08/15 09:30:55;;;;;;;15.33;12.03;;;;;;;27.34;64.98;99373.59;4264206;28;21521;-62
2022/08/15 09:33:57;;;;;;;19.57;13.20;;;;;;;27.80;63.10;99375.22;4274551;28;21565;-63
2022/08/15 09:36:43;;;;;;;18.40;12.97;;;;;;;27.89;61.20;99376.28;4265133;28;21285;-63
2022/08/15 09:39:37;;;;;;;19.13;12.60;;;;;;;28.13;60.90;99373.63;4265555;28;20229;-66
2022/08/15 09:42:52;;;;;;;17.73;11.73;;;;;;;27.86;60.89;99367.81;4264735;28;20613;-64
2022/08/15 09:46:27;;;;;;;29.57;12.57;;;;;;;27.54;62.49;99359.00;4302196;28;20237;-63
2022/08/15 09:49:27;;;;;;;21.87;12.10;;;;;;;27.18;63.27;99350.16;4231628;28;20250;-62
2022/08/15 09:52:37;;;;;;;17.50;11.27;;;;;;;27.52;63.33;99349.47;4248807;28;20498;-64
2022/08/15 09:55:34;;;;;;;17.93;11.53;;;;;;;27.29;62.99;99340.84;4283733;28;20822;-64
2022/08/15 09:58:38;;;;;;;16.87;11.30;;;;;;;27.07;62.51;99337.69;4246199;28;20303;-62
2022/08/15 10:01:14;;;;;;;19.07;11.73;;;;;;;26.98;63.10;99340.19;4254947;28;20263;-65
2022/08/15 10:03:44;;;;;;;21.43;10.43;;;;;;;27.13;62.88;99336.53;4274250;28;20225;-62
2022/08/15 10:06:18;;;;;;;18.07;10.83;;;;;;;27.33;61.26;99339.19;4260359;28;20430;-62
2022/08/15 10:09:12;;;;;;;19.27;11.30;;;;;;;27.43;61.63;99332.03;4262532;28;20242;-63
2022/08/15 10:11:41;;;;;;;16.57;11.07;;;;;;;27.06;62.35;99334.13;4286822;28;22705;-66
2022/08/15 10:14:51;;;;;;;22.27;11.07;;;;;;;27.05;62.42;99328.94;4280752;28;20480;-64
2022/08/15 10:17:27;;;;;;;19.33;11.27;;;;;;;27.18;63.61;99331.03;4265216;28;20313;-63
2022/08/15 10:20:46;;;;;;;22.37;12.20;;;;;;;27.17;63.14;99323.97;4272087;28;20382;-64
2022/08/15 10:23:14;;;;;;;18.33;10.83;;;;;;;27.58;61.76;99331.91;4273451;28;21729;-68
2022/08/15 10:26:08;;;;;;;18.53;11.33;;;;;;;27.88;60.54;99333.63;4299844;28;20241;-64
2022/08/15 10:28:58;;;;;;;18.13;11.33;;;;;;;28.08;59.41;99332.63;4258800;28;20349;-67
2022/08/15 10:31:28;;;;;;;18.20;11.83;;;;;;;28.43;59.34;99341.59;4253451;28;20234;-71
2022/08/15 10:34:19;;;;;;;15.97;10.90;;;;;;;28.30;57.98;99336.78;4285943;28;22083;-62
2022/08/15 10:37:05;;;;;;;14.00;10.67;;;;;;;27.72;61.62;99322.00;4279021;28;20234;-64
2022/08/15 10:39:44;;;;;;;20.67;10.80;;;;;;;27.94;61.25;99326.19;4274237;28;20561;-61
2022/08/15 10:42:16;;;;;;;23.50;11.07;;;;;;;27.91;60.43;99329.50;4268677;28;20627;-67
2022/08/15 10:45:14;;;;;;;20.57;10.93;;;;;;;27.56;62.14;99323.19;4296616;28;20320;-67
2022/08/15 10:48:07;;;;;;;18.27;11.50;;;;;;;28.10;61.19;99333.16;4288058;28;22345;-63
2022/08/15 10:51:10;;;;;;;21.17;11.33;;;;;;;28.40;58.17;99342.16;4302229;28;20233;-63
2022/08/15 10:53:47;;;;;;;17.60;11.23;;;;;;;28.57;58.14;99342.56;4286219;28;20292;-63
2022/08/15 10:56:23;;;;;;;15.33;10.83;;;;;;;28.64;58.21;99335.94;4280797;28;20875;-67
2022/08/15 10:59:15;;;;;;;18.10;10.30;;;;;;;28.73;58.22;99342.34;4289190;28;20241;-65
2022/08/15 11:01:46;;;;;;;17.97;11.40;;;;;;;28.35;59.34;99342.22;4268763;28;20273;-67
2022/08/15 11:04:30;;;;;;;15.37;10.77;;;;;;;28.14;60.98;99334.22;4273199;28;20237;-66
2022/08/15 11:07:40;;;;;;;20.40;11.67;;;;;;;27.61;61.89;99323.16;4298492;28;22193;-75
2022/08/15 11:10:10;;;;;;;18.27;11.17;;;;;;;27.61;61.63;99325.09;4288375;28;23704;-67
2022/08/15 11:12:50;;;;;;;20.90;10.47;;;;;;;27.61;62.75;99330.56;4265830;28;20272;-68
2022/08/15 11:15:28;;;;;;;19.60;10.90;;;;;;;27.62;61.71;99332.97;4278438;28;21425;-69
2022/08/15 11:18:04;;;;;;;20.47;11.30;;;;;;;27.55;63.02;99325.09;4289902;28;20243;-70
2022/08/15 11:20:52;;;;;;;16.20;10.20;;;;;;;27.63;62.76;99331.06;4291429;28;22372;-68
2022/08/15 11:23:36;;;;;;;20.03;11.87;;;;;;;27.61;63.78;99333.28;4278880;28;20626;-69
2022/08/15 11:26:04;;;;;;;21.80;11.67;;;;;;;27.47;65.07;99333.09;4301546;28;20229;-73
2022/08/15 11:29:07;;;;;;;20.23;12.10;;;;;;;27.25;67.69;99320.66;4292398;28;20248;-71
2022/08/15 11:31:55;;;;;;;15.60;11.13;;;;;;;27.42;66.30;99327.66;4340037;28;25561;-71
2022/08/15 11:34:29;;;;;;;20.43;11.00;;;;;;;27.66;65.28;99328.59;4280480;28;20250;-72
2022/08/15 11:37:18;;;;;;;21.47;11.50;;;;;;;27.79;66.66;99322.47;4297939;28;21103;-71
2022/08/15 11:40:25;;;;;;;20.07;11.30;;;;;;;27.97;64.31;99323.69;4300217;28;20380;-69
2022/08/15 11:42:53;;;;;;;13.83;10.17;;;;;;;27.86;62.70;99324.06;4296796;28;20261;-74
2022/08/15 11:45:34;;;;;;;18.70;10.57;;;;;;;27.82;63.10;99328.47;4318833;28;21314;-70
2022/08/15 11:48:29;;;;;;;14.80;10.67;;;;;;;28.56;59.60;99329.16;4303587;28;20465;-71
2022/08/15 11:51:08;;;;;;;22.30;11.17;;;;;;;28.73;58.88;99328.66;4308410;28;20281;-72
2022/08/15 11:54:04;;;;;;;14.67;10.00;;;;;;;29.10;58.42;99319.72;4274698;28;20238;-73
2022/08/15 11:57:06;;;;;;;21.20;10.90;;;;;;;29.32;57.33;99324.63;4280508;28;20848;-73
2022/08/15 12:00:00;;;;;;;14.30;10.53;;;;;;;29.41;56.63;99328.34;4247010;28;20691;-72
2022/08/15 12:02:30;;;;;;;18.50;9.45;;;;;;;29.48;53.74;99327.97;4284818;28;20233;-71
2022/08/15 12:05:15;;;;;;;15.10;10.30;;;;;;;29.64;54.53;99318.41;4300432;28;20234;-73
2022/08/15 12:08:04;;;;;;;16.80;9.97;;;;;;;29.19;56.10;99323.44;4291291;28;20437;-71
2022/08/15 12:11:07;;;;;;;16.13;9.30;;;;;;;29.12;53.87;99319.44;4282939;28;20253;-74
2022/08/15 12:13:36;;;;;;;13.18;8.50;;;;;;;28.85;52.50;99320.88;4289745;28;20264;-70
2022/08/15 12:16:21;;;;;;;16.80;8.40;;;;;;;28.74;52.22;99319.38;4290192;28;20238;-76
2022/08/15 12:18:56;;;;;;;16.88;8.50;;;;;;;28.53;53.84;99324.28;4280683;28;20234;-70
2022/08/15 12:21:24;;;;;;;19.10;8.97;;;;;;;28.75;53.69;99315.50;4284801;28;22476;-74
2022/08/15 12:23:54;;;;;;;17.53;7.63;;;;;;;28.74;51.16;99313.88;4290738;28;20657;-73